Terminal Aerodrome Forecast
Issued by NWS

Home | Current Version | Previous Version | Graphics & Text | Print | Product List | Glossary On
Versions: 1 2 3 4 5 6 7 8 9 10 11 12 13 14 15
000
FTUS41 KCLE 260535
TAFFDY
TAF
KFDY 260535Z 2606/2706 24005KT P6SM VCSH BKN050
     FM261100 36002KT P6SM VCSH SCT020 BKN040
      TEMPO 2611/2615 BKN020
     FM261500 06005KT P6SM SCT035 BKN250=

USA.gov is the U.S. government's official web portal to all federal, state and local government web resources and services.